sensor_id;sensor_type;location;lat;lon;timestamp;temperature;humidity
62339;DHT22;48368;53.406;6.214;2024-01-16T00:00:15;1.80;99.90
62339;DHT22;48368;53.406;6.214;2024-01-16T00:02:41;1.80;99.90
62339;DHT22;48368;53.406;6.214;2024-01-16T00:05:10;1.90;99.90
62339;DHT22;48368;53.406;6.214;2024-01-16T00:07:39;1.90;99.90
62339;DHT22;48368;53.406;6.214;2024-01-16T00:10:07;1.80;99.90
62339;DHT22;48368;53.406;6.214;2024-01-16T00:12:35;1.90;99.90
62339;DHT22;48368;53.406;6.214;2024-01-16T00:15:00;1.90;99.90
62339;DHT22;48368;53.406;6.214;2024-01-16T00:17:26;1.90;99.90
62339;DHT22;48368;53.406;6.214;2024-01-16T00:19:51;2.00;99.90
62339;DHT22;48368;53.406;6.214;2024-01-16T00:22:17;2.00;99.90
62339;DHT22;48368;53.406;6.214;2024-01-16T00:24:43;2.10;99.90
62339;DHT22;48368;53.406;6.214;2024-01-16T00:27:08;2.10;99.90
62339;DHT22;48368;53.406;6.214;2024-01-16T00:29:34;2.20;99.90
62339;DHT22;48368;53.406;6.214;2024-01-16T00:31:59;2.30;99.90
62339;DHT22;48368;53.406;6.214;2024-01-16T00:34:25;2.20;99.90
62339;DHT22;48368;53.406;6.214;2024-01-16T00:36:51;2.10;99.90
62339;DHT22;48368;53.406;6.214;2024-01-16T00:39:16;1.90;99.90
62339;DHT22;48368;53.406;6.214;2024-01-16T00:41:42;1.80;99.90
62339;DHT22;48368;53.406;6.214;2024-01-16T00:44:07;1.70;99.90
62339;DHT22;48368;53.406;6.214;2024-01-16T00:46:33;1.70;99.90
62339;DHT22;48368;53.406;6.214;2024-01-16T00:48:59;1.80;99.90
62339;DHT22;48368;53.406;6.214;2024-01-16T00:51:25;1.80;99.90
62339;DHT22;48368;53.406;6.214;2024-01-16T00:53:51;1.90;99.90
62339;DHT22;48368;53.406;6.214;2024-01-16T00:56:16;2.00;99.90
62339;DHT22;48368;53.406;6.214;2024-01-16T00:58:42;2.10;99.90
62339;DHT22;48368;53.406;6.214;2024-01-16T01:01:07;2.10;99.90
62339;DHT22;48368;53.406;6.214;2024-01-16T01:03:33;2.10;99.90
62339;DHT22;48368;53.406;6.214;2024-01-16T01:06:01;2.10;99.90
62339;DHT22;48368;53.406;6.214;2024-01-16T01:08:27;2.10;99.90
62339;DHT22;48368;53.406;6.214;2024-01-16T01:10:52;2.00;99.90
62339;DHT22;48368;53.406;6.214;2024-01-16T01:13:18;1.90;99.90
62339;DHT22;48368;53.406;6.214;2024-01-16T01:15:44;1.80;99.90
62339;DHT22;48368;53.406;6.214;2024-01-16T01:18:12;1.60;99.90
62339;DHT22;48368;53.406;6.214;2024-01-16T01:20:38;1.60;99.90
62339;DHT22;48368;53.406;6.214;2024-01-16T01:23:04;1.50;99.90
62339;DHT22;48368;53.406;6.214;2024-01-16T01:25:29;1.40;99.90
62339;DHT22;48368;53.406;6.214;2024-01-16T01:27:58;1.40;99.90
62339;DHT22;48368;53.406;6.214;2024-01-16T01:30:23;1.40;99.90
62339;DHT22;48368;53.406;6.214;2024-01-16T01:32:49;1.30;99.90
62339;DHT22;48368;53.406;6.214;2024-01-16T01:35:17;1.20;99.90
62339;DHT22;48368;53.406;6.214;2024-01-16T01:37:45;1.20;99.90
62339;DHT22;48368;53.406;6.214;2024-01-16T01:40:11;1.10;99.90
62339;DHT22;48368;53.406;6.214;2024-01-16T01:42:38;1.00;99.90
62339;DHT22;48368;53.406;6.214;2024-01-16T01:45:06;1.00;99.90
62339;DHT22;48368;53.406;6.214;2024-01-16T01:47:32;0.90;99.90
62339;DHT22;48368;53.406;6.214;2024-01-16T01:49:58;0.90;99.90
62339;DHT22;48368;53.406;6.214;2024-01-16T01:52:24;1.00;99.90
62339;DHT22;48368;53.406;6.214;2024-01-16T01:54:51;1.00;99.90
62339;DHT22;48368;53.406;6.214;2024-01-16T01:57:17;1.00;99.90
62339;DHT22;48368;53.406;6.214;2024-01-16T01:59:43;1.00;99.90
62339;DHT22;48368;53.406;6.214;2024-01-16T02:02:10;1.00;99.90
62339;DHT22;48368;53.406;6.214;2024-01-16T02:04:37;1.00;99.90
62339;DHT22;48368;53.406;6.214;2024-01-16T02:07:04;1.10;99.90
62339;DHT22;48368;53.406;6.214;2024-01-16T02:09:30;1.10;99.90
62339;DHT22;48368;53.406;6.214;2024-01-16T02:11:56;1.10;99.90
62339;DHT22;48368;53.406;6.214;2024-01-16T02:14:24;1.30;99.90
62339;DHT22;48368;53.406;6.214;2024-01-16T02:16:50;1.60;99.90
62339;DHT22;48368;53.406;6.214;2024-01-16T02:19:16;1.80;99.90
62339;DHT22;48368;53.406;6.214;2024-01-16T02:21:46;2.00;99.90
62339;DHT22;48368;53.406;6.214;2024-01-16T02:24:16;2.10;99.90
62339;DHT22;48368;53.406;6.214;2024-01-16T02:26:43;2.20;99.90
62339;DHT22;48368;53.406;6.214;2024-01-16T02:29:08;2.30;99.90
62339;DHT22;48368;53.406;6.214;2024-01-16T02:31:34;2.40;99.90
62339;DHT22;48368;53.406;6.214;2024-01-16T02:34:01;2.40;99.90
62339;DHT22;48368;53.406;6.214;2024-01-16T02:36:28;2.50;99.90
62339;DHT22;48368;53.406;6.214;2024-01-16T02:38:57;2.50;99.90
62339;DHT22;48368;53.406;6.214;2024-01-16T02:41:22;2.50;99.90
62339;DHT22;48368;53.406;6.214;2024-01-16T02:43:48;2.50;99.90
62339;DHT22;48368;53.406;6.214;2024-01-16T02:46:14;2.50;99.90
62339;DHT22;48368;53.406;6.214;2024-01-16T02:48:40;2.50;99.90
62339;DHT22;48368;53.406;6.214;2024-01-16T02:51:08;2.50;99.90
62339;DHT22;48368;53.406;6.214;2024-01-16T02:53:34;2.50;99.90
62339;DHT22;48368;53.406;6.214;2024-01-16T02:55:59;2.50;99.90
62339;DHT22;48368;53.406;6.214;2024-01-16T02:58:28;2.50;99.90
62339;DHT22;48368;53.406;6.214;2024-01-16T03:00:55;2.50;99.90
62339;DHT22;48368;53.406;6.214;2024-01-16T03:03:27;2.40;99.90
62339;DHT22;48368;53.406;6.214;2024-01-16T03:05:54;2.40;99.90
62339;DHT22;48368;53.406;6.214;2024-01-16T03:08:21;2.30;99.90
62339;DHT22;48368;53.406;6.214;2024-01-16T03:10:47;2.20;99.90
62339;DHT22;48368;53.406;6.214;2024-01-16T03:13:14;2.20;99.90
62339;DHT22;48368;53.406;6.214;2024-01-16T03:15:39;2.10;99.90
62339;DHT22;48368;53.406;6.214;2024-01-16T03:18:06;2.10;99.90
62339;DHT22;48368;53.406;6.214;2024-01-16T03:20:32;2.10;99.90
62339;DHT22;48368;53.406;6.214;2024-01-16T03:22:58;2.10;99.90
62339;DHT22;48368;53.406;6.214;2024-01-16T03:25:23;2.00;99.90
62339;DHT22;48368;53.406;6.214;2024-01-16T03:27:52;2.00;99.90
62339;DHT22;48368;53.406;6.214;2024-01-16T03:30:18;2.00;99.90
62339;DHT22;48368;53.406;6.214;2024-01-16T03:32:46;2.00;99.90
62339;DHT22;48368;53.406;6.214;2024-01-16T03:35:12;1.90;99.90
62339;DHT22;48368;53.406;6.214;2024-01-16T03:37:38;1.90;99.90
62339;DHT22;48368;53.406;6.214;2024-01-16T03:40:04;1.80;99.90
62339;DHT22;48368;53.406;6.214;2024-01-16T03:42:30;1.80;99.90
62339;DHT22;48368;53.406;6.214;2024-01-16T03:44:58;1.80;99.90
62339;DHT22;48368;53.406;6.214;2024-01-16T03:47:24;1.80;99.90
62339;DHT22;48368;53.406;6.214;2024-01-16T03:49:49;1.70;99.90
62339;DHT22;48368;53.406;6.214;2024-01-16T03:52:15;1.70;99.90
62339;DHT22;48368;53.406;6.214;2024-01-16T03:54:43;1.70;99.90
62339;DHT22;48368;53.406;6.214;2024-01-16T03:57:09;1.70;99.90
62339;DHT22;48368;53.406;6.214;2024-01-16T03:59:37;1.70;99.90
62339;DHT22;48368;53.406;6.214;2024-01-16T04:02:03;1.70;99.90
62339;DHT22;48368;53.406;6.214;2024-01-16T04:04:29;1.70;99.90
62339;DHT22;48368;53.406;6.214;2024-01-16T04:06:57;1.70;99.90
62339;DHT22;48368;53.406;6.214;2024-01-16T04:09:23;1.70;99.90
62339;DHT22;48368;53.406;6.214;2024-01-16T04:11:50;1.70;99.90
62339;DHT22;48368;53.406;6.214;2024-01-16T04:14:16;2.00;99.90
62339;DHT22;48368;53.406;6.214;2024-01-16T04:16:41;2.10;99.90
62339;DHT22;48368;53.406;6.214;2024-01-16T04:19:07;2.10;99.90
62339;DHT22;48368;53.406;6.214;2024-01-16T04:21:36;2.00;99.90
62339;DHT22;48368;53.406;6.214;2024-01-16T04:24:02;1.90;99.90
62339;DHT22;48368;53.406;6.214;2024-01-16T04:26:28;1.90;99.90
62339;DHT22;48368;53.406;6.214;2024-01-16T04:28:53;1.90;99.90
62339;DHT22;48368;53.406;6.214;2024-01-16T04:31:19;1.80;99.90
62339;DHT22;48368;53.406;6.214;2024-01-16T04:33:47;1.80;99.90
62339;DHT22;48368;53.406;6.214;2024-01-16T04:36:15;1.70;99.90
62339;DHT22;48368;53.406;6.214;2024-01-16T04:38:40;1.70;99.90
62339;DHT22;48368;53.406;6.214;2024-01-16T04:41:07;1.50;99.90
62339;DHT22;48368;53.406;6.214;2024-01-16T04:43:32;1.50;99.90
62339;DHT22;48368;53.406;6.214;2024-01-16T04:45:58;1.40;99.90
62339;DHT22;48368;53.406;6.214;2024-01-16T04:48:24;1.40;99.90
62339;DHT22;48368;53.406;6.214;2024-01-16T04:50:49;1.30;99.90
62339;DHT22;48368;53.406;6.214;2024-01-16T04:53:18;1.30;99.90
62339;DHT22;48368;53.406;6.214;2024-01-16T04:55:44;1.20;99.90
62339;DHT22;48368;53.406;6.214;2024-01-16T04:58:09;1.20;99.90
62339;DHT22;48368;53.406;6.214;2024-01-16T05:00:35;1.20;99.90
62339;DHT22;48368;53.406;6.214;2024-01-16T05:03:04;1.20;99.90
62339;DHT22;48368;53.406;6.214;2024-01-16T05:05:30;1.20;99.90
62339;DHT22;48368;53.406;6.214;2024-01-16T05:07:57;1.20;99.90
62339;DHT22;48368;53.406;6.214;2024-01-16T05:10:25;1.30;99.90
62339;DHT22;48368;53.406;6.214;2024-01-16T05:12:51;1.30;99.90
62339;DHT22;48368;53.406;6.214;2024-01-16T05:15:17;1.30;99.90
62339;DHT22;48368;53.406;6.214;2024-01-16T05:17:42;1.30;99.90
62339;DHT22;48368;53.406;6.214;2024-01-16T05:20:08;1.30;99.90
62339;DHT22;48368;53.406;6.214;2024-01-16T05:22:35;1.30;99.90
62339;DHT22;48368;53.406;6.214;2024-01-16T05:25:00;1.20;99.90
62339;DHT22;48368;53.406;6.214;2024-01-16T05:27:29;1.20;99.90
62339;DHT22;48368;53.406;6.214;2024-01-16T05:29:54;1.20;99.90
62339;DHT22;48368;53.406;6.214;2024-01-16T05:32:20;1.20;99.90
62339;DHT22;48368;53.406;6.214;2024-01-16T05:34:46;1.20;99.90
62339;DHT22;48368;53.406;6.214;2024-01-16T05:37:11;1.20;99.90
62339;DHT22;48368;53.406;6.214;2024-01-16T05:39:37;1.20;99.90
62339;DHT22;48368;53.406;6.214;2024-01-16T05:42:06;1.20;99.90
62339;DHT22;48368;53.406;6.214;2024-01-16T05:44:31;1.20;99.90
62339;DHT22;48368;53.406;6.214;2024-01-16T05:46:57;1.20;99.90
62339;DHT22;48368;53.406;6.214;2024-01-16T05:49:23;1.20;99.90
62339;DHT22;48368;53.406;6.214;2024-01-16T05:51:48;1.20;99.90
62339;DHT22;48368;53.406;6.214;2024-01-16T05:54:14;1.20;99.90
62339;DHT22;48368;53.406;6.214;2024-01-16T05:56:40;1.20;99.90
62339;DHT22;48368;53.406;6.214;2024-01-16T05:59:05;1.20;99.90
62339;DHT22;48368;53.406;6.214;2024-01-16T06:01:35;1.20;99.90
62339;DHT22;48368;53.406;6.214;2024-01-16T06:04:00;1.20;99.90
62339;DHT22;48368;53.406;6.214;2024-01-16T06:06:27;1.20;99.90
62339;DHT22;48368;53.406;6.214;2024-01-16T06:08:53;1.20;99.90
62339;DHT22;48368;53.406;6.214;2024-01-16T06:11:19;1.20;99.90
62339;DHT22;48368;53.406;6.214;2024-01-16T06:13:54;1.20;99.90
62339;DHT22;48368;53.406;6.214;2024-01-16T06:16:20;1.20;99.90
62339;DHT22;48368;53.406;6.214;2024-01-16T06:18:45;1.20;99.90
62339;DHT22;48368;53.406;6.214;2024-01-16T06:21:11;1.30;99.90
62339;DHT22;48368;53.406;6.214;2024-01-16T06:23:40;1.30;99.90
62339;DHT22;48368;53.406;6.214;2024-01-16T06:26:08;1.30;99.90
62339;DHT22;48368;53.406;6.214;2024-01-16T06:28:34;1.30;99.90
62339;DHT22;48368;53.406;6.214;2024-01-16T06:30:59;1.30;99.90
62339;DHT22;48368;53.406;6.214;2024-01-16T06:33:25;1.30;99.90
62339;DHT22;48368;53.406;6.214;2024-01-16T06:35:51;1.30;99.90
62339;DHT22;48368;53.406;6.214;2024-01-16T06:38:17;1.30;99.90
62339;DHT22;48368;53.406;6.214;2024-01-16T06:40:42;1.30;99.90
62339;DHT22;48368;53.406;6.214;2024-01-16T06:43:08;1.30;99.90
62339;DHT22;48368;53.406;6.214;2024-01-16T06:45:34;1.40;99.90
62339;DHT22;48368;53.406;6.214;2024-01-16T06:48:00;1.40;99.90
62339;DHT22;48368;53.406;6.214;2024-01-16T06:50:25;1.30;99.90
62339;DHT22;48368;53.406;6.214;2024-01-16T06:52:51;1.30;99.90
62339;DHT22;48368;53.406;6.214;2024-01-16T06:55:16;1.30;99.90
62339;DHT22;48368;53.406;6.214;2024-01-16T06:57:42;1.40;99.90
62339;DHT22;48368;53.406;6.214;2024-01-16T07:00:08;1.40;99.90
62339;DHT22;48368;53.406;6.214;2024-01-16T07:02:34;1.40;99.90
62339;DHT22;48368;53.406;6.214;2024-01-16T07:04:59;1.60;99.90
62339;DHT22;48368;53.406;6.214;2024-01-16T07:07:29;1.70;99.90
62339;DHT22;48368;53.406;6.214;2024-01-16T07:09:56;1.70;99.90
62339;DHT22;48368;53.406;6.214;2024-01-16T07:12:24;1.60;99.90
62339;DHT22;48368;53.406;6.214;2024-01-16T07:14:50;1.50;99.90
62339;DHT22;48368;53.406;6.214;2024-01-16T07:17:16;1.50;99.90
62339;DHT22;48368;53.406;6.214;2024-01-16T07:19:41;1.50;99.90
62339;DHT22;48368;53.406;6.214;2024-01-16T07:22:07;1.40;99.90
62339;DHT22;48368;53.406;6.214;2024-01-16T07:24:33;1.40;99.90
62339;DHT22;48368;53.406;6.214;2024-01-16T07:26:58;1.50;99.90
62339;DHT22;48368;53.406;6.214;2024-01-16T07:29:24;1.50;99.90
62339;DHT22;48368;53.406;6.214;2024-01-16T07:31:49;1.50;99.90
62339;DHT22;48368;53.406;6.214;2024-01-16T07:34:15;1.50;99.90
62339;DHT22;48368;53.406;6.214;2024-01-16T07:36:45;1.50;99.90
62339;DHT22;48368;53.406;6.214;2024-01-16T07:39:11;1.50;99.90
62339;DHT22;48368;53.406;6.214;2024-01-16T07:41:37;1.50;99.90
62339;DHT22;48368;53.406;6.214;2024-01-16T07:44:03;1.50;99.90
62339;DHT22;48368;53.406;6.214;2024-01-16T07:46:28;1.40;99.90
62339;DHT22;48368;53.406;6.214;2024-01-16T07:48:54;1.40;99.90
62339;DHT22;48368;53.406;6.214;2024-01-16T07:51:20;1.40;99.90
62339;DHT22;48368;53.406;6.214;2024-01-16T07:53:45;1.30;99.90
62339;DHT22;48368;53.406;6.214;2024-01-16T07:56:11;1.30;99.90
62339;DHT22;48368;53.406;6.214;2024-01-16T07:58:37;1.50;99.90
62339;DHT22;48368;53.406;6.214;2024-01-16T08:01:03;1.40;99.90
62339;DHT22;48368;53.406;6.214;2024-01-16T08:03:28;1.50;99.90
62339;DHT22;48368;53.406;6.214;2024-01-16T08:05:55;1.40;99.90
62339;DHT22;48368;53.406;6.214;2024-01-16T08:08:21;1.40;99.90
62339;DHT22;48368;53.406;6.214;2024-01-16T08:10:47;1.40;99.90
62339;DHT22;48368;53.406;6.214;2024-01-16T08:13:12;1.40;99.90
62339;DHT22;48368;53.406;6.214;2024-01-16T08:15:38;1.30;99.90
62339;DHT22;48368;53.406;6.214;2024-01-16T08:18:04;1.40;99.90
62339;DHT22;48368;53.406;6.214;2024-01-16T08:20:30;1.40;99.90
62339;DHT22;48368;53.406;6.214;2024-01-16T08:22:55;1.40;99.90
62339;DHT22;48368;53.406;6.214;2024-01-16T08:25:21;1.40;99.90
62339;DHT22;48368;53.406;6.214;2024-01-16T08:27:47;1.40;99.90
62339;DHT22;48368;53.406;6.214;2024-01-16T08:30:12;1.30;99.90
62339;DHT22;48368;53.406;6.214;2024-01-16T08:32:38;1.30;99.90
62339;DHT22;48368;53.406;6.214;2024-01-16T08:35:04;1.30;99.90
62339;DHT22;48368;53.406;6.214;2024-01-16T08:37:33;1.30;99.90
62339;DHT22;48368;53.406;6.214;2024-01-16T08:39:59;1.30;99.90
62339;DHT22;48368;53.406;6.214;2024-01-16T08:42:25;1.30;99.90
62339;DHT22;48368;53.406;6.214;2024-01-16T08:44:51;1.40;99.90
62339;DHT22;48368;53.406;6.214;2024-01-16T08:47:16;1.40;99.90
62339;DHT22;48368;53.406;6.214;2024-01-16T08:49:42;1.40;99.90
62339;DHT22;48368;53.406;6.214;2024-01-16T08:52:09;1.40;99.90
62339;DHT22;48368;53.406;6.214;2024-01-16T08:54:38;1.40;99.90
62339;DHT22;48368;53.406;6.214;2024-01-16T08:57:04;1.40;99.90
62339;DHT22;48368;53.406;6.214;2024-01-16T08:59:29;1.50;99.90
62339;DHT22;48368;53.406;6.214;2024-01-16T09:01:55;1.50;99.90
62339;DHT22;48368;53.406;6.214;2024-01-16T09:04:21;1.50;99.90
62339;DHT22;48368;53.406;6.214;2024-01-16T09:06:47;1.50;99.90
62339;DHT22;48368;53.406;6.214;2024-01-16T09:09:13;1.50;99.90
62339;DHT22;48368;53.406;6.214;2024-01-16T09:11:41;1.50;99.90
62339;DHT22;48368;53.406;6.214;2024-01-16T09:14:07;1.50;99.90
62339;DHT22;48368;53.406;6.214;2024-01-16T09:16:32;1.40;99.90
62339;DHT22;48368;53.406;6.214;2024-01-16T09:18:58;1.40;99.90
62339;DHT22;48368;53.406;6.214;2024-01-16T09:21:23;1.40;99.90
62339;DHT22;48368;53.406;6.214;2024-01-16T09:23:49;1.40;99.90
62339;DHT22;48368;53.406;6.214;2024-01-16T09:26:15;1.50;99.90
62339;DHT22;48368;53.406;6.214;2024-01-16T09:28:40;1.50;99.90
62339;DHT22;48368;53.406;6.214;2024-01-16T09:31:06;1.60;99.90
62339;DHT22;48368;53.406;6.214;2024-01-16T09:33:33;1.70;99.90
62339;DHT22;48368;53.406;6.214;2024-01-16T09:35:59;1.70;99.90
62339;DHT22;48368;53.406;6.214;2024-01-16T09:38:25;1.60;99.90
62339;DHT22;48368;53.406;6.214;2024-01-16T09:40:50;1.60;99.90
62339;DHT22;48368;53.406;6.214;2024-01-16T09:43:18;1.50;99.90
62339;DHT22;48368;53.406;6.214;2024-01-16T09:45:47;1.40;99.90
62339;DHT22;48368;53.406;6.214;2024-01-16T09:48:14;1.30;99.90
62339;DHT22;48368;53.406;6.214;2024-01-16T09:50:40;1.30;99.90
62339;DHT22;48368;53.406;6.214;2024-01-16T09:53:06;1.20;99.90
62339;DHT22;48368;53.406;6.214;2024-01-16T09:55:32;1.20;99.90
62339;DHT22;48368;53.406;6.214;2024-01-16T09:57:58;1.20;99.90
62339;DHT22;48368;53.406;6.214;2024-01-16T10:00:24;1.20;99.90
62339;DHT22;48368;53.406;6.214;2024-01-16T10:02:53;1.20;99.90
62339;DHT22;48368;53.406;6.214;2024-01-16T10:05:18;1.20;99.90
62339;DHT22;48368;53.406;6.214;2024-01-16T10:07:46;1.30;99.90
62339;DHT22;48368;53.406;6.214;2024-01-16T10:10:13;1.30;99.90
62339;DHT22;48368;53.406;6.214;2024-01-16T10:12:40;1.30;99.90
62339;DHT22;48368;53.406;6.214;2024-01-16T10:15:07;1.30;99.90
62339;DHT22;48368;53.406;6.214;2024-01-16T10:17:41;1.30;99.90
62339;DHT22;48368;53.406;6.214;2024-01-16T10:20:08;1.20;99.90
62339;DHT22;48368;53.406;6.214;2024-01-16T10:22:39;1.30;99.90
62339;DHT22;48368;53.406;6.214;2024-01-16T10:27:32;1.30;99.90
62339;DHT22;48368;53.406;6.214;2024-01-16T10:29:58;1.30;99.90
62339;DHT22;48368;53.406;6.214;2024-01-16T10:32:35;1.30;99.90
62339;DHT22;48368;53.406;6.214;2024-01-16T10:35:08;1.30;99.90
62339;DHT22;48368;53.406;6.214;2024-01-16T10:37:45;1.30;99.90
62339;DHT22;48368;53.406;6.214;2024-01-16T10:40:21;1.30;99.90
62339;DHT22;48368;53.406;6.214;2024-01-16T10:43:03;1.30;99.90
62339;DHT22;48368;53.406;6.214;2024-01-16T10:45:30;1.30;99.90
62339;DHT22;48368;53.406;6.214;2024-01-16T10:48:08;1.20;99.90
62339;DHT22;48368;53.406;6.214;2024-01-16T10:50:36;1.20;99.90
62339;DHT22;48368;53.406;6.214;2024-01-16T10:53:06;1.30;99.90
62339;DHT22;48368;53.406;6.214;2024-01-16T10:55:43;1.30;99.90
62339;DHT22;48368;53.406;6.214;2024-01-16T10:58:13;1.40;99.90
62339;DHT22;48368;53.406;6.214;2024-01-16T11:00:39;1.40;99.90
62339;DHT22;48368;53.406;6.214;2024-01-16T11:03:11;1.40;99.90
62339;DHT22;48368;53.406;6.214;2024-01-16T11:05:37;1.50;99.90
62339;DHT22;48368;53.406;6.214;2024-01-16T11:08:05;1.50;99.90
62339;DHT22;48368;53.406;6.214;2024-01-16T11:10:34;1.50;99.90
62339;DHT22;48368;53.406;6.214;2024-01-16T11:13:01;1.50;99.90
62339;DHT22;48368;53.406;6.214;2024-01-16T11:15:28;1.50;99.90
62339;DHT22;48368;53.406;6.214;2024-01-16T11:17:55;1.40;99.90
62339;DHT22;48368;53.406;6.214;2024-01-16T11:20:21;1.40;99.90
62339;DHT22;48368;53.406;6.214;2024-01-16T11:22:47;1.30;99.90
62339;DHT22;48368;53.406;6.214;2024-01-16T11:25:16;1.20;99.90
62339;DHT22;48368;53.406;6.214;2024-01-16T11:27:46;1.30;99.90
62339;DHT22;48368;53.406;6.214;2024-01-16T11:30:30;1.20;99.90
62339;DHT22;48368;53.406;6.214;2024-01-16T11:32:56;1.20;99.90
62339;DHT22;48368;53.406;6.214;2024-01-16T11:35:36;1.20;99.90
62339;DHT22;48368;53.406;6.214;2024-01-16T11:38:16;1.20;99.90
62339;DHT22;48368;53.406;6.214;2024-01-16T11:40:42;1.20;99.90
62339;DHT22;48368;53.406;6.214;2024-01-16T11:43:34;1.20;99.90
62339;DHT22;48368;53.406;6.214;2024-01-16T11:46:01;1.30;99.90
62339;DHT22;48368;53.406;6.214;2024-01-16T11:48:27;1.30;99.90
62339;DHT22;48368;53.406;6.214;2024-01-16T11:50:53;1.30;99.90
62339;DHT22;48368;53.406;6.214;2024-01-16T11:53:38;1.40;99.90
62339;DHT22;48368;53.406;6.214;2024-01-16T12:01:57;1.70;99.90
62339;DHT22;48368;53.406;6.214;2024-01-16T12:04:23;1.80;99.90
62339;DHT22;48368;53.406;6.214;2024-01-16T12:06:59;1.90;99.90
62339;DHT22;48368;53.406;6.214;2024-01-16T12:09:27;1.90;99.90
62339;DHT22;48368;53.406;6.214;2024-01-16T12:12:01;2.00;99.90
62339;DHT22;48368;53.406;6.214;2024-01-16T12:14:27;2.00;99.90
62339;DHT22;48368;53.406;6.214;2024-01-16T12:17:07;2.00;99.90
62339;DHT22;48368;53.406;6.214;2024-01-16T12:19:33;2.00;99.90
62339;DHT22;48368;53.406;6.214;2024-01-16T12:22:00;2.00;99.90
62339;DHT22;48368;53.406;6.214;2024-01-16T12:24:26;1.90;99.90
62339;DHT22;48368;53.406;6.214;2024-01-16T12:26:51;1.90;99.90
62339;DHT22;48368;53.406;6.214;2024-01-16T12:29:18;1.90;99.90
62339;DHT22;48368;53.406;6.214;2024-01-16T12:31:44;1.90;99.90
62339;DHT22;48368;53.406;6.214;2024-01-16T12:34:09;1.90;99.90
62339;DHT22;48368;53.406;6.214;2024-01-16T12:36:36;1.90;99.90
62339;DHT22;48368;53.406;6.214;2024-01-16T12:39:02;1.90;99.90
62339;DHT22;48368;53.406;6.214;2024-01-16T12:41:32;2.00;99.90
62339;DHT22;48368;53.406;6.214;2024-01-16T12:44:01;2.00;99.90
62339;DHT22;48368;53.406;6.214;2024-01-16T12:46:27;2.10;99.90
62339;DHT22;48368;53.406;6.214;2024-01-16T12:48:52;2.10;99.90
62339;DHT22;48368;53.406;6.214;2024-01-16T12:51:21;2.10;99.90
62339;DHT22;48368;53.406;6.214;2024-01-16T12:53:49;2.10;99.90
62339;DHT22;48368;53.406;6.214;2024-01-16T12:56:19;2.10;99.90
62339;DHT22;48368;53.406;6.214;2024-01-16T12:58:46;2.10;99.90
62339;DHT22;48368;53.406;6.214;2024-01-16T13:03:48;2.00;99.90
62339;DHT22;48368;53.406;6.214;2024-01-16T13:06:18;2.00;99.90
62339;DHT22;48368;53.406;6.214;2024-01-16T13:08:50;1.80;99.90
62339;DHT22;48368;53.406;6.214;2024-01-16T13:11:24;1.80;99.90
62339;DHT22;48368;53.406;6.214;2024-01-16T13:14:01;1.80;99.90
62339;DHT22;48368;53.406;6.214;2024-01-16T13:16:29;1.80;99.90
62339;DHT22;48368;53.406;6.214;2024-01-16T13:19:01;1.90;99.90
62339;DHT22;48368;53.406;6.214;2024-01-16T13:21:27;1.90;99.90
62339;DHT22;48368;53.406;6.214;2024-01-16T13:23:53;1.80;99.90
62339;DHT22;48368;53.406;6.214;2024-01-16T13:26:18;1.80;99.90
62339;DHT22;48368;53.406;6.214;2024-01-16T13:28:44;1.90;99.90
62339;DHT22;48368;53.406;6.214;2024-01-16T13:31:18;1.90;99.90
62339;DHT22;48368;53.406;6.214;2024-01-16T13:33:44;2.00;99.90
62339;DHT22;48368;53.406;6.214;2024-01-16T13:36:10;2.00;99.90
62339;DHT22;48368;53.406;6.214;2024-01-16T13:38:37;2.10;99.90
62339;DHT22;48368;53.406;6.214;2024-01-16T13:41:03;2.00;99.90
62339;DHT22;48368;53.406;6.214;2024-01-16T13:43:28;2.00;99.90
62339;DHT22;48368;53.406;6.214;2024-01-16T13:45:54;1.90;99.90
62339;DHT22;48368;53.406;6.214;2024-01-16T13:48:20;1.80;99.90
62339;DHT22;48368;53.406;6.214;2024-01-16T13:50:47;1.80;99.90
62339;DHT22;48368;53.406;6.214;2024-01-16T13:53:15;1.70;99.90
62339;DHT22;48368;53.406;6.214;2024-01-16T13:55:42;1.80;99.90
62339;DHT22;48368;53.406;6.214;2024-01-16T13:58:08;1.70;99.90
62339;DHT22;48368;53.406;6.214;2024-01-16T14:00:34;1.80;99.90
62339;DHT22;48368;53.406;6.214;2024-01-16T14:02:59;1.80;99.90
62339;DHT22;48368;53.406;6.214;2024-01-16T14:05:25;1.80;99.90
62339;DHT22;48368;53.406;6.214;2024-01-16T14:07:55;1.80;99.90
62339;DHT22;48368;53.406;6.214;2024-01-16T14:10:22;1.90;99.90
62339;DHT22;48368;53.406;6.214;2024-01-16T14:12:52;1.80;99.90
62339;DHT22;48368;53.406;6.214;2024-01-16T14:15:20;1.90;99.90
62339;DHT22;48368;53.406;6.214;2024-01-16T14:17:54;1.90;99.90
62339;DHT22;48368;53.406;6.214;2024-01-16T14:20:21;1.90;99.90
62339;DHT22;48368;53.406;6.214;2024-01-16T14:22:49;1.90;99.90
62339;DHT22;48368;53.406;6.214;2024-01-16T14:25:15;1.90;99.90
62339;DHT22;48368;53.406;6.214;2024-01-16T14:27:48;1.90;99.90
62339;DHT22;48368;53.406;6.214;2024-01-16T14:30:15;2.00;99.90
62339;DHT22;48368;53.406;6.214;2024-01-16T14:32:42;2.00;99.90
62339;DHT22;48368;53.406;6.214;2024-01-16T14:35:09;2.00;99.90
62339;DHT22;48368;53.406;6.214;2024-01-16T14:37:36;2.00;99.90
62339;DHT22;48368;53.406;6.214;2024-01-16T14:40:03;2.00;99.90
62339;DHT22;48368;53.406;6.214;2024-01-16T14:42:35;2.10;99.90
62339;DHT22;48368;53.406;6.214;2024-01-16T14:45:04;2.10;99.90
62339;DHT22;48368;53.406;6.214;2024-01-16T14:47:31;2.10;99.90
62339;DHT22;48368;53.406;6.214;2024-01-16T14:49:56;2.10;99.90
62339;DHT22;48368;53.406;6.214;2024-01-16T14:52:23;2.00;99.90
62339;DHT22;48368;53.406;6.214;2024-01-16T14:54:48;2.00;99.90
62339;DHT22;48368;53.406;6.214;2024-01-16T14:57:16;2.00;99.90
62339;DHT22;48368;53.406;6.214;2024-01-16T14:59:44;2.00;99.90
62339;DHT22;48368;53.406;6.214;2024-01-16T15:02:19;2.00;99.90
62339;DHT22;48368;53.406;6.214;2024-01-16T15:04:49;2.00;99.90
62339;DHT22;48368;53.406;6.214;2024-01-16T15:07:15;2.00;99.90
62339;DHT22;48368;53.406;6.214;2024-01-16T15:09:45;2.00;99.90
62339;DHT22;48368;53.406;6.214;2024-01-16T15:12:14;2.10;99.90
62339;DHT22;48368;53.406;6.214;2024-01-16T15:14:39;2.10;99.90
62339;DHT22;48368;53.406;6.214;2024-01-16T15:17:05;2.00;99.90
62339;DHT22;48368;53.406;6.214;2024-01-16T15:19:32;2.00;99.90
62339;DHT22;48368;53.406;6.214;2024-01-16T15:21:58;2.00;99.90
62339;DHT22;48368;53.406;6.214;2024-01-16T15:24:23;1.90;99.90
62339;DHT22;48368;53.406;6.214;2024-01-16T15:27:02;1.90;99.90
62339;DHT22;48368;53.406;6.214;2024-01-16T15:29:28;1.80;99.90
62339;DHT22;48368;53.406;6.214;2024-01-16T15:31:55;1.80;99.90
62339;DHT22;48368;53.406;6.214;2024-01-16T15:34:25;1.70;99.90
62339;DHT22;48368;53.406;6.214;2024-01-16T15:36:50;1.70;99.90
62339;DHT22;48368;53.406;6.214;2024-01-16T15:39:16;1.60;99.90
62339;DHT22;48368;53.406;6.214;2024-01-16T15:41:42;1.60;99.90
62339;DHT22;48368;53.406;6.214;2024-01-16T15:44:09;1.60;99.90
62339;DHT22;48368;53.406;6.214;2024-01-16T15:46:53;1.50;99.90
62339;DHT22;48368;53.406;6.214;2024-01-16T15:49:18;1.50;99.90
62339;DHT22;48368;53.406;6.214;2024-01-16T15:51:44;1.50;99.90
62339;DHT22;48368;53.406;6.214;2024-01-16T15:54:13;1.50;99.90